Terminal Aerodrome Forecast
Issued by NWS Jackson, MS

Home | Current Version | Previous Version | Text Only | Print | Product List | Glossary On
Versions: 1 2 3 4 5 6 7 8 9 10 11 12
000
FTUS44 KJAN 300549 RRA
TAFJAN
TAF
KJAN 300549Z 3006/3106 18011G23KT 6SM -TSRA BKN025CB BKN050
     FM300630 20020G30KT 1SM TSRA BKN015 OVC025CB
     FM300800 18010G20KT 6SM -SHRA VCTS BKN015 BKN025CB
     FM301200 18009KT P6SM VCSH BKN025 BKN090
     FM301500 20012G21KT P6SM VCTS BKN025CB BKN250
     FM301900 20013G24KT P6SM SHRA VCTS BKN050CB BKN250
     FM310000 22007KT P6SM FEW050 SCT250=

USA.gov is the U.S. government's official web portal to all federal, state and local government web resources and services.